HS Bizet — A8MI3 — position and weather

sailwx.info

Track history (hours):
 
Tides and Currents Weather Stations Pressure Air Temp Water Temp Dewpoint Dewpoint Depression Visibility Wind Speed Wind Dir Waves Ship Positions

HS Bizet

Last reported at 2016-May-23 06:13 UTC. Time now 2016-May-31 16:09 UTC.
Position N 32°04' W 117°52'.
Warning: this ship's position is 8 days out of date.

Length 246 m; draft 9.9 m.

Type: Ship (hazmat cat A). MMSI: 636091349.

Date/timePositionNaut miles runAvg speedWind from/ knotsBaromVisibWave heightAir tempDewpointWater temp
2016-May-23 06:13N 32°04' W 117°52'2917.6
2016-May-23 04:33N 32°34' W 117°49'1817.7
2016-May-23 03:33N 32°51' W 117°54'1817.6
2016-May-23 02:32N 33°08' W 118°01'1515.3
2016-May-23 01:33N 33°22' W 118°07'1211.8
2016-May-23 00:33N 33°33' W 118°12'1110.2
2016-May-22 23:31N 33°44' W 118°11'4 3.6
2016-May-22 22:33N 33°46' W 118°14'10 0.3
2016-May-21 11:08N 33°36' W 118°17'6 9.8
2016-May-21 10:32N 33°37' W 118°23'21211.8
2016-May-20 16:33N 35°41' W 121°53'1515.1
2016-May-20 15:33N 35°54' W 122°02'1915.0
2016-May-20 14:18N 36°10' W 122°13'1114.6
2016-May-20 13:33N 36°20' W 122°20'1514.9
2016-May-20 12:33N 36°33' W 122°26'1514.9
2016-May-20 11:33N 36°48' W 122°33'1515.1
2016-May-20 10:32N 37°02' W 122°40'1414.9
2016-May-20 09:33N 37°16' W 122°43'1515.3
2016-May-20 08:33N 37°32' W 122°43'1414.2
2016-May-20 07:33N 37°46' W 122°40'1212.2
2016-May-20 06:34N 37°51' W 122°26'7 7.5
2016-May-20 05:34N 37°48' W 122°17'1 1.3
2016-May-20 04:29N 37°48' W 122°19'0 0.0
2016-May-20 03:32N 37°48' W 122°19'0 0.0
2016-May-20 02:29N 37°48' W 122°19'0 0.0
2016-May-20 01:32N 37°48' W 122°19'0 0.0
2016-May-20 00:32N 37°48' W 122°19'0 0.0
2016-May-19 23:29N 37°48' W 122°19'0 0.0
2016-May-19 22:26N 37°48' W 122°19'0 0.0
2016-May-19 21:29N 37°48' W 122°19'0 0.0
2016-May-19 20:32N 37°48' W 122°19'0 0.0
2016-May-19 19:29N 37°48' W 122°19'0 0.0
2016-May-19 18:32N 37°48' W 122°19'0 0.0
2016-May-19 17:32N 37°48' W 122°19'0 0.0
2016-May-19 16:29N 37°48' W 122°19'0 0.0
2016-May-19 15:32N 37°48' W 122°19'0 0.0
2016-May-19 14:32N 37°48' W 122°19'2 1.7
2016-May-19 13:33N 37°48' W 122°21'3 2.4
2016-May-19 12:31N 37°46' W 122°21'0 0.0
2016-May-19 11:31N 37°46' W 122°21'0 0.1
2016-May-19 10:28N 37°46' W 122°21'0 0.0
2016-May-19 09:31N 37°46' W 122°21'0 0.0
2016-May-19 08:31N 37°46' W 122°21'0 0.1
2016-May-19 07:31N 37°46' W 122°21'0 0.1
2016-May-19 06:31N 37°46' W 122°21'0 0.1
2016-May-19 05:31N 37°46' W 122°21'0 0.1
2016-May-19 04:31N 37°45' W 122°21'0 0.0
2016-May-19 03:31N 37°45' W 122°21'0 0.0
2016-May-19 02:31N 37°45' W 122°21'0 0.1
2016-May-19 01:31N 37°46' W 122°21'0 0.1
2016-May-19 00:31N 37°46' W 122°21'0 0.2
2016-May-18 23:33N 37°46' W 122°21'0 0.0
2016-May-18 22:33N 37°46' W 122°21'1 1.1
2016-May-18 21:33N 37°47' W 122°22'10 9.9
2016-May-18 20:33N 37°47' W 122°34'1010.2
2016-May-18 19:33N 37°41' W 122°45'1111.4
2016-May-18 18:33N 37°35' W 122°57'1211.7
2016-May-18 17:33N 37°27' W 123°08'2911.9
2016-May-18 15:06N 37°05' W 123°32'812.1
2016-May-18 14:24N 36°59' W 123°39'1012.0
2016-May-18 13:33N 36°51' W 123°47'1212.2
2016-May-18 12:33N 36°42' W 123°57'9513.6
2016-May-18 05:33N 35°31' W 125°15'  
Track history (hours):
 
Tides and Currents Weather Stations Pressure Air Temp Water Temp Dewpoint Dewpoint Depression Visibility Wind Speed Wind Dir Waves Ship Positions

HS Bizet

Last reported at 2016-May-23 06:13 UTC. Time now 2016-May-31 16:09 UTC.
Position N 32°04' W 117°52'.
Warning: this ship's position is 8 days out of date.

Length 246 m; draft 9.9 m.

Type: Ship (hazmat cat A). MMSI: 636091349.

Date/timePositionNaut miles runAvg speedWind from/ knotsBaromVisibWave heightAir tempDewpointWater temp
2016-May-23 06:13N 32°04' W 117°52'2917.6
2016-May-23 04:33N 32°34' W 117°49'1817.7
2016-May-23 03:33N 32°51' W 117°54'1817.6
2016-May-23 02:32N 33°08' W 118°01'1515.3
2016-May-23 01:33N 33°22' W 118°07'1211.8
2016-May-23 00:33N 33°33' W 118°12'1110.2
2016-May-22 23:31N 33°44' W 118°11'4 3.6
2016-May-22 22:33N 33°46' W 118°14'10 0.3
2016-May-21 11:08N 33°36' W 118°17'6 9.8
2016-May-21 10:32N 33°37' W 118°23'21211.8
2016-May-20 16:33N 35°41' W 121°53'1515.1
2016-May-20 15:33N 35°54' W 122°02'1915.0
2016-May-20 14:18N 36°10' W 122°13'1114.6
2016-May-20 13:33N 36°20' W 122°20'1514.9
2016-May-20 12:33N 36°33' W 122°26'1514.9
2016-May-20 11:33N 36°48' W 122°33'1515.1
2016-May-20 10:32N 37°02' W 122°40'1414.9
2016-May-20 09:33N 37°16' W 122°43'1515.3
2016-May-20 08:33N 37°32' W 122°43'1414.2
2016-May-20 07:33N 37°46' W 122°40'1212.2
2016-May-20 06:34N 37°51' W 122°26'7 7.5
2016-May-20 05:34N 37°48' W 122°17'1 1.3
2016-May-20 04:29N 37°48' W 122°19'0 0.0
2016-May-20 03:32N 37°48' W 122°19'0 0.0
2016-May-20 02:29N 37°48' W 122°19'0 0.0
2016-May-20 01:32N 37°48' W 122°19'0 0.0
2016-May-20 00:32N 37°48' W 122°19'0 0.0
2016-May-19 23:29N 37°48' W 122°19'0 0.0
2016-May-19 22:26N 37°48' W 122°19'0 0.0
2016-May-19 21:29N 37°48' W 122°19'0 0.0
2016-May-19 20:32N 37°48' W 122°19'0 0.0
2016-May-19 19:29N 37°48' W 122°19'0 0.0
2016-May-19 18:32N 37°48' W 122°19'0 0.0
2016-May-19 17:32N 37°48' W 122°19'0 0.0
2016-May-19 16:29N 37°48' W 122°19'0 0.0
2016-May-19 15:32N 37°48' W 122°19'0 0.0
2016-May-19 14:32N 37°48' W 122°19'2 1.7
2016-May-19 13:33N 37°48' W 122°21'3 2.4
2016-May-19 12:31N 37°46' W 122°21'0 0.0
2016-May-19 11:31N 37°46' W 122°21'0 0.1
2016-May-19 10:28N 37°46' W 122°21'0 0.0
2016-May-19 09:31N 37°46' W 122°21'0 0.0
2016-May-19 08:31N 37°46' W 122°21'0 0.1
2016-May-19 07:31N 37°46' W 122°21'0 0.1
2016-May-19 06:31N 37°46' W 122°21'0 0.1
2016-May-19 05:31N 37°46' W 122°21'0 0.1
2016-May-19 04:31N 37°45' W 122°21'0 0.0
2016-May-19 03:31N 37°45' W 122°21'0 0.0
2016-May-19 02:31N 37°45' W 122°21'0 0.1
2016-May-19 01:31N 37°46' W 122°21'0 0.1
2016-May-19 00:31N 37°46' W 122°21'0 0.2
2016-May-18 23:33N 37°46' W 122°21'0 0.0
2016-May-18 22:33N 37°46' W 122°21'1 1.1
2016-May-18 21:33N 37°47' W 122°22'10 9.9
2016-May-18 20:33N 37°47' W 122°34'1010.2
2016-May-18 19:33N 37°41' W 122°45'1111.4
2016-May-18 18:33N 37°35' W 122°57'1211.7
2016-May-18 17:33N 37°27' W 123°08'2911.9
2016-May-18 15:06N 37°05' W 123°32'812.1
2016-May-18 14:24N 36°59' W 123°39'1012.0
2016-May-18 13:33N 36°51' W 123°47'1212.2
2016-May-18 12:33N 36°42' W 123°57'9513.6
2016-May-18 05:33N 35°31' W 125°15'  

Dump ship's entire track history